Time;durP1;ratioP1;P1;durP2;ratioP2;P2;SDS_P1;SDS_P2;PMS_P1;PMS_P2;Temp;Humidity;BMP_temperature;BMP_pressure;BME280_temperature;BME280_humidity;BME280_pressure;Samples;Min_cycle;Max_cycle;Signal;HPM_P1;HPM_P2
2022/10/14 00:00:53;;;;;;;4.22;1.15;;;;;;;12.82;61.71;100140.78;3145602;28;20507;-69
2022/10/14 00:02:27;;;;;;;6.55;1.60;;;;;;;12.82;61.99;100138.19;3145459;28;20060;-69
2022/10/14 00:04:00;;;;;;;3.13;1.48;;;;;;;12.80;62.34;100134.78;3145723;28;20068;-70
2022/10/14 00:05:30;;;;;;;3.50;1.30;;;;;;;12.81;62.22;100136.47;3145337;28;20644;-69
2022/10/14 00:07:02;;;;;;;6.68;1.58;;;;;;;12.83;61.94;100135.47;3145446;28;20144;-69
2022/10/14 00:08:33;;;;;;;6.07;1.40;;;;;;;12.83;62.21;100130.25;3145469;28;20049;-69
2022/10/14 00:10:06;;;;;;;7.90;1.52;;;;;;;12.84;62.49;100134.59;3145526;28;20048;-69
2022/10/14 00:11:39;;;;;;;3.83;1.60;;;;;;;12.84;62.39;100129.34;3145388;28;20118;-69
2022/10/14 00:13:11;;;;;;;7.85;2.05;;;;;;;12.84;62.55;100144.19;3145552;28;20044;-69
2022/10/14 00:14:43;;;;;;;6.85;1.63;;;;;;;12.84;62.51;100131.97;3145458;28;20044;-69
2022/10/14 00:16:16;;;;;;;3.90;1.38;;;;;;;12.83;62.94;100126.81;3145239;28;20049;-69
2022/10/14 00:17:49;;;;;;;4.55;1.27;;;;;;;12.81;63.13;100128.63;3145445;28;20621;-69
2022/10/14 00:19:21;;;;;;;3.88;1.67;;;;;;;12.78;63.09;100124.44;3145471;28;20510;-69
2022/10/14 00:20:56;;;;;;;4.82;1.50;;;;;;;12.76;63.29;100123.66;3145278;28;20056;-69
2022/10/14 00:22:28;;;;;;;2.28;1.10;;;;;;;12.73;63.43;100123.81;3145353;28;20102;-69
2022/10/14 00:24:00;;;;;;;3.28;1.20;;;;;;;12.71;63.64;100125.63;3145158;28;20067;-69
2022/10/14 00:25:37;;;;;;;3.75;1.00;;;;;;;12.68;64.03;100123.16;3145504;28;20449;-69
2022/10/14 00:27:09;;;;;;;4.90;1.48;;;;;;;12.65;64.06;100123.31;3145319;28;20131;-69
2022/10/14 00:28:41;;;;;;;3.10;1.25;;;;;;;12.64;63.85;100126.88;3145520;28;20056;-69
2022/10/14 00:30:13;;;;;;;5.88;1.40;;;;;;;12.61;64.04;100122.63;3145264;28;20045;-69
2022/10/14 00:31:45;;;;;;;3.58;1.35;;;;;;;12.62;64.32;100126.09;3145109;28;20234;-69
2022/10/14 00:33:17;;;;;;;5.68;1.33;;;;;;;12.62;64.08;100119.09;3145283;28;20106;-69
2022/10/14 00:34:49;;;;;;;4.60;1.40;;;;;;;12.63;64.42;100122.53;3145407;28;20052;-69
2022/10/14 00:36:23;;;;;;;4.95;1.27;;;;;;;12.63;64.09;100120.78;3144973;28;20650;-69
2022/10/14 00:37:55;;;;;;;5.68;1.35;;;;;;;12.64;63.98;100126.88;3144695;28;20048;-69
2022/10/14 00:39:27;;;;;;;3.30;1.13;;;;;;;12.65;63.77;100118.09;3144715;28;20059;-69
2022/10/14 00:40:58;;;;;;;3.58;1.20;;;;;;;12.67;63.98;100124.09;3145165;28;20441;-69
2022/10/14 00:42:33;;;;;;;3.45;1.25;;;;;;;12.68;64.19;100120.56;3145242;28;20055;-69
2022/10/14 00:44:06;;;;;;;3.20;1.17;;;;;;;12.63;64.16;100106.84;3144739;28;20048;-69
2022/10/14 00:45:38;;;;;;;3.20;1.15;;;;;;;12.70;64.21;100126.56;3145209;28;20415;-69
2022/10/14 00:47:09;;;;;;;4.32;1.05;;;;;;;12.70;64.06;100124.78;3145204;28;20059;-68
2022/10/14 00:48:43;;;;;;;3.25;1.08;;;;;;;12.71;63.86;100116.03;3144964;28;20052;-69
2022/10/14 00:50:17;;;;;;;2.13;1.23;;;;;;;12.72;64.26;100117.72;3144972;28;20449;-69
2022/10/14 00:51:52;;;;;;;6.63;1.67;;;;;;;12.73;63.77;100114.19;3144792;28;20056;-69
2022/10/14 00:53:24;;;;;;;8.88;1.48;;;;;;;12.74;63.87;100117.63;3145095;28;20052;-68
2022/10/14 00:55:00;;;;;;;7.15;1.33;;;;;;;12.72;64.10;100127.34;3145012;28;20515;-69
2022/10/14 00:56:33;;;;;;;2.85;1.20;;;;;;;12.70;64.05;100116.94;3144843;28;20060;-69
2022/10/14 00:58:05;;;;;;;7.38;1.30;;;;;;;12.68;64.15;100121.41;3145097;28;20088;-69
2022/10/14 00:59:38;;;;;;;7.75;1.90;;;;;;;12.69;64.41;100124.88;3144653;28;20492;-69
2022/10/14 01:01:10;;;;;;;6.55;1.88;;;;;;;12.70;64.01;100121.34;3135426;28;20101;-68
2022/10/14 01:02:42;;;;;;;4.65;1.73;;;;;;;12.71;64.42;100125.63;3144888;28;20078;-69
2022/10/14 01:04:14;;;;;;;5.78;2.33;;;;;;;12.72;64.36;100114.28;3144976;28;20109;-69
2022/10/14 01:05:52;;;;;;;10.40;3.33;;;;;;;12.74;64.09;100121.09;3144697;28;20318;-68
2022/10/14 01:07:34;;;;;;;2.63;1.15;;;;;;;12.73;64.54;100116.81;3144017;28;20084;-69
2022/10/14 01:09:14;;;;;;;11.45;2.13;;;;;;;12.73;64.65;100118.56;3144813;28;20052;-69
2022/10/14 01:10:54;;;;;;;4.45;1.52;;;;;;;12.73;64.17;100119.41;3144810;28;20052;-69
2022/10/14 01:12:34;;;;;;;6.57;1.73;;;;;;;12.76;64.17;100123.66;3144763;28;20612;-69
2022/10/14 01:14:15;;;;;;;4.38;1.13;;;;;;;12.76;64.36;100118.41;3144606;28;20502;-69
2022/10/14 01:15:54;;;;;;;3.83;1.38;;;;;;;12.78;63.98;100116.59;3138939;28;20091;-69
2022/10/14 01:17:35;;;;;;;2.47;1.05;;;;;;;12.79;63.93;100118.28;3144938;28;20049;-69
2022/10/14 01:19:29;;;;;;;3.70;1.25;;;;;;;12.82;64.07;100117.28;3144538;28;20489;-69
2022/10/14 01:21:08;;;;;;;6.60;1.42;;;;;;;12.85;64.01;100112.75;3144605;28;20110;-69
2022/10/14 01:22:46;;;;;;;4.18;1.30;;;;;;;12.88;63.98;100117.81;3144952;28;20055;-69
2022/10/14 01:24:42;;;;;;;5.60;1.00;;;;;;;12.86;64.02;100114.41;3144712;28;20044;-68
2022/10/14 01:26:26;;;;;;;3.88;1.00;;;;;;;12.88;63.89;100114.34;3144690;28;20118;-69
2022/10/14 01:28:15;;;;;;;4.95;0.98;;;;;;;12.87;63.87;100102.22;3143357;28;20048;-68
2022/10/14 01:30:16;;;;;;;4.40;1.50;;;;;;;12.86;63.98;100103.97;3144430;28;20060;-69
2022/10/14 01:31:50;;;;;;;7.10;1.73;;;;;;;12.88;64.10;100106.50;3131702;28;20053;-69
2022/10/14 01:33:25;;;;;;;5.03;1.10;;;;;;;12.91;64.00;100109.81;3144814;28;20052;-69
2022/10/14 01:35:02;;;;;;;2.65;1.25;;;;;;;12.92;63.85;100108.88;3144771;28;20048;-69
2022/10/14 01:36:39;;;;;;;3.05;0.85;;;;;;;12.95;63.97;100107.88;3144675;28;20371;-69
2022/10/14 01:38:14;;;;;;;7.25;0.98;;;;;;;12.94;63.92;100095.75;3144527;28;20113;-69
2022/10/14 01:39:52;;;;;;;3.92;1.17;;;;;;;13.00;64.06;100099.81;3140433;28;20067;-69
2022/10/14 01:41:29;;;;;;;3.17;1.10;;;;;;;12.98;63.81;100098.16;3144586;28;20048;-69
2022/10/14 01:43:02;;;;;;;6.15;1.13;;;;;;;12.97;63.93;100085.97;3144546;28;20060;-68
2022/10/14 01:44:39;;;;;;;3.10;2.08;;;;;;;12.95;63.98;100082.63;3144395;28;20045;-68
2022/10/14 01:46:13;;;;;;;2.10;1.00;;;;;;;13.01;64.21;100088.44;3144724;28;20101;-68
2022/10/14 01:47:48;;;;;;;5.22;1.30;;;;;;;13.03;63.92;100090.06;3144538;28;20059;-68
2022/10/14 01:49:27;;;;;;;3.80;1.08;;;;;;;13.04;63.88;100089.13;3144178;28;20056;-69
2022/10/14 01:51:02;;;;;;;4.15;1.00;;;;;;;13.06;64.16;100091.66;3134300;28;20056;-69
2022/10/14 01:52:40;;;;;;;1.92;1.00;;;;;;;13.06;64.08;100086.44;3144497;28;20064;-68
2022/10/14 01:54:15;;;;;;;3.20;1.27;;;;;;;13.07;63.85;100085.50;3144692;28;20059;-68
2022/10/14 01:55:49;;;;;;;10.35;1.10;;;;;;;13.09;63.75;100084.50;3143890;28;20098;-68
2022/10/14 01:57:26;;;;;;;3.38;1.08;;;;;;;13.10;64.10;100080.13;3144195;28;20117;-69
2022/10/14 01:59:00;;;;;;;3.85;1.15;;;;;;;13.12;64.03;100080.91;3144556;28;20481;-69
2022/10/14 02:00:31;;;;;;;3.78;0.90;;;;;;;13.13;64.20;100086.06;3144522;28;20503;-68
2022/10/14 02:02:04;;;;;;;3.60;1.40;;;;;;;13.15;64.12;100088.59;3144249;28;20135;-68
2022/10/14 02:03:40;;;;;;;;;;;;;;;13.13;63.80;100088.69;3144779;28;20053;-68
2022/10/14 02:05:17;;;;;;;2.53;1.13;;;;;;;13.14;63.84;100081.69;3143925;28;20361;-68
2022/10/14 02:06:57;;;;;;;3.70;0.93;;;;;;;13.11;63.85;100077.44;3144647;28;20641;-68
2022/10/14 02:08:36;;;;;;;1.30;0.75;;;;;;;13.20;64.19;100089.22;3144664;28;20533;-69
2022/10/14 02:10:17;;;;;;;4.57;1.00;;;;;;;13.22;63.88;100087.34;3141505;28;20056;-68
2022/10/14 02:11:58;;;;;;;3.75;1.10;;;;;;;13.25;63.72;100084.63;3144273;28;20546;-69
2022/10/14 02:13:50;;;;;;;3.05;1.10;;;;;;;13.27;63.98;100085.38;3144439;28;20052;-69
2022/10/14 02:15:33;;;;;;;3.13;1.00;;;;;;;13.30;63.83;100092.22;3142065;28;20044;-69
2022/10/14 02:17:12;;;;;;;5.43;1.10;;;;;;;13.27;63.96;100071.44;3144218;28;20626;-69
2022/10/14 02:18:51;;;;;;;2.45;1.20;;;;;;;13.33;63.96;100084.22;3144385;28;20407;-69
2022/10/14 02:20:29;;;;;;;3.58;1.17;;;;;;;13.33;64.00;100077.19;3144303;28;20041;-69
2022/10/14 02:22:07;;;;;;;2.83;1.00;;;;;;;13.30;63.68;100076.53;3144349;28;20052;-68
2022/10/14 02:23:44;;;;;;;3.30;0.95;;;;;;;13.37;63.73;100075.28;3144436;28;20048;-69
2022/10/14 02:25:20;;;;;;;4.03;0.90;;;;;;;13.33;63.84;100068.50;3144268;28;20055;-69
2022/10/14 02:26:56;;;;;;;6.55;1.42;;;;;;;13.37;64.12;100070.06;3144343;28;20445;-69
2022/10/14 02:28:29;;;;;;;5.43;1.15;;;;;;;13.37;63.88;100065.66;3144159;28;20064;-69
2022/10/14 02:30:03;;;;;;;6.03;0.73;;;;;;;13.38;64.08;100069.13;3144199;28;20123;-69
2022/10/14 02:31:38;;;;;;;5.57;1.10;;;;;;;13.39;64.12;100065.56;3144383;28;20059;-69
2022/10/14 02:33:11;;;;;;;4.60;1.00;;;;;;;13.40;63.95;100068.13;3144137;28;20481;-69
2022/10/14 02:34:44;;;;;;;;;;;;;;;13.39;63.97;100065.56;3144314;28;20047;-69
2022/10/14 02:36:19;;;;;;;5.05;1.10;;;;;;;13.39;63.92;100066.41;3144024;28;20321;-69
2022/10/14 02:37:53;;;;;;;3.85;0.95;;;;;;;13.42;64.07;100076.72;3144142;28;20067;-69
2022/10/14 02:39:30;;;;;;;5.72;1.10;;;;;;;13.42;63.81;100071.50;3139383;28;20068;-69
2022/10/14 02:41:05;;;;;;;4.72;1.48;;;;;;;13.46;63.80;100077.44;3144289;28;20052;-69
2022/10/14 02:42:37;;;;;;;2.70;1.13;;;;;;;13.44;63.79;100066.19;3144257;28;20235;-69
2022/10/14 02:44:09;;;;;;;5.55;1.02;;;;;;;13.49;63.71;100073.78;3144089;28;20113;-69
2022/10/14 02:45:42;;;;;;;2.28;0.88;;;;;;;13.52;63.86;100071.03;3144020;28;20487;-69
2022/10/14 02:47:14;;;;;;;3.45;1.25;;;;;;;13.53;63.63;100070.94;3144214;28;20106;-69
2022/10/14 02:48:48;;;;;;;6.30;1.00;;;;;;;13.55;63.86;100076.09;3143976;28;20087;-69
2022/10/14 02:50:19;;;;;;;;;;;;;;;13.52;64.01;100065.78;3144668;28;20098;-69
2022/10/14 02:51:51;;;;;;;3.80;1.10;;;;;;;13.52;63.94;100074.47;3143765;28;19921;-69
2022/10/14 02:53:23;;;;;;;4.22;0.85;;;;;;;13.54;63.91;100067.38;3143819;28;20505;-70
2022/10/14 02:54:55;;;;;;;7.82;1.13;;;;;;;13.54;63.58;100063.91;3144147;28;20044;-69
2022/10/14 02:56:27;;;;;;;7.55;0.88;;;;;;;13.50;63.71;100065.88;3143989;28;20059;-70
2022/10/14 02:57:58;;;;;;;4.75;1.10;;;;;;;13.56;63.74;100072.53;3144009;28;20045;-70
2022/10/14 02:59:30;;;;;;;4.47;1.35;;;;;;;13.57;63.73;100069.81;3143706;28;20050;-69
2022/10/14 03:01:01;;;;;;;8.40;1.17;;;;;;;13.57;63.92;100075.06;3133524;28;20082;-69
2022/10/14 03:02:33;;;;;;;3.40;1.55;;;;;;;13.58;63.78;100073.31;3145851;28;20049;-68
2022/10/14 03:04:07;;;;;;;5.75;1.10;;;;;;;13.59;63.67;100067.16;3146100;28;20071;-69
2022/10/14 03:05:38;;;;;;;2.40;0.90;;;;;;;13.61;63.58;100071.38;3146071;28;20043;-69
2022/10/14 03:07:10;;;;;;;4.15;0.80;;;;;;;13.62;63.76;100070.44;3146235;28;20533;-69
2022/10/14 03:08:42;;;;;;;3.83;0.70;;;;;;;13.61;63.89;100073.16;3146197;28;20602;-69
2022/10/14 03:10:14;;;;;;;5.45;1.45;;;;;;;13.60;63.67;100072.28;3146094;28;20044;-69
2022/10/14 03:11:46;;;;;;;7.53;1.30;;;;;;;13.62;63.61;100072.22;3145998;28;20055;-69
2022/10/14 03:13:18;;;;;;;7.22;1.50;;;;;;;13.62;63.54;100061.75;3146251;28;20449;-69
2022/10/14 03:14:49;;;;;;;4.13;1.70;;;;;;;13.63;63.66;100063.44;3133899;28;20045;-69
2022/10/14 03:16:21;;;;;;;4.85;1.30;;;;;;;13.65;63.82;100067.66;3144989;28;20154;-69
2022/10/14 03:17:53;;;;;;;6.40;1.33;;;;;;;13.65;63.60;100061.59;3145946;28;20445;-69
2022/10/14 03:19:26;;;;;;;3.08;1.23;;;;;;;13.66;63.41;100065.88;3146420;28;20059;-69
2022/10/14 03:20:58;;;;;;;2.72;1.30;;;;;;;13.65;63.41;100061.59;3140058;28;20056;-69
2022/10/14 03:22:30;;;;;;;3.25;1.25;;;;;;;13.63;63.96;100050.34;3139743;28;20049;-68
2022/10/14 03:24:02;;;;;;;5.40;1.13;;;;;;;13.63;63.66;100059.03;3146185;28;20044;-69
2022/10/14 03:25:34;;;;;;;8.90;1.40;;;;;;;13.64;63.61;100052.06;3146165;28;20056;-70
2022/10/14 03:27:05;;;;;;;3.72;1.50;;;;;;;13.64;63.79;100052.91;3145938;28;20045;-69
2022/10/14 03:28:37;;;;;;;2.15;1.35;;;;;;;13.64;63.42;100050.28;3146074;28;20105;-69
2022/10/14 03:30:10;;;;;;;2.80;1.20;;;;;;;13.64;63.75;100050.28;3140497;28;20227;-69
2022/10/14 03:31:41;;;;;;;3.03;1.30;;;;;;;13.65;63.59;100048.50;3136251;28;20155;-69
2022/10/14 03:33:13;;;;;;;4.22;1.45;;;;;;;13.65;63.69;100043.25;3136443;28;20321;-69
2022/10/14 03:34:45;;;;;;;3.63;1.20;;;;;;;13.65;63.62;100043.25;3136231;28;20078;-69
2022/10/14 03:36:17;;;;;;;6.63;1.77;;;;;;;13.64;63.49;100050.28;3135875;28;20242;-69
2022/10/14 03:37:51;;;;;;;3.17;1.30;;;;;;;13.65;63.63;100041.47;3135634;28;20143;-69
2022/10/14 03:39:24;;;;;;;3.70;2.00;;;;;;;13.64;63.50;100042.41;3130872;28;20059;-69
2022/10/14 03:40:56;;;;;;;6.82;1.50;;;;;;;13.66;63.54;100037.09;3136628;28;20044;-69
2022/10/14 03:42:28;;;;;;;10.02;1.80;;;;;;;13.67;63.72;100032.72;3137101;28;20110;-69
2022/10/14 03:44:01;;;;;;;3.88;1.42;;;;;;;13.64;63.51;100033.72;3136821;28;20460;-69
2022/10/14 03:45:32;;;;;;;7.53;2.45;;;;;;;13.67;63.47;100030.94;3136700;28;20086;-69
2022/10/14 03:47:04;;;;;;;8.23;1.75;;;;;;;13.68;63.36;100037.88;3135710;28;20056;-69
2022/10/14 03:48:36;;;;;;;6.07;1.40;;;;;;;13.68;63.30;100034.41;3135664;28;20130;-70
2022/10/14 03:50:09;;;;;;;7.90;2.22;;;;;;;13.67;63.63;100030.94;3134926;28;20056;-69
2022/10/14 03:51:41;;;;;;;5.97;1.45;;;;;;;13.68;63.19;100037.88;3136324;28;20326;-69
2022/10/14 03:53:15;;;;;;;9.70;2.00;;;;;;;13.69;63.25;100031.69;3136337;28;20110;-68
2022/10/14 03:54:47;;;;;;;12.88;2.88;;;;;;;13.70;63.15;100043.03;3136250;28;20052;-69
2022/10/14 03:56:18;;;;;;;7.32;2.65;;;;;;;13.69;63.47;100031.69;3136810;28;20106;-69
2022/10/14 03:57:50;;;;;;;7.60;2.05;;;;;;;13.70;63.53;100032.56;3136883;28;20518;-69
2022/10/14 03:59:21;;;;;;;8.52;2.20;;;;;;;13.71;63.52;100031.63;3136131;28;20535;-69
2022/10/14 04:00:53;;;;;;;11.50;2.30;;;;;;;13.71;63.40;100035.06;3135810;28;20281;-68
2022/10/14 04:02:24;;;;;;;8.02;2.40;;;;;;;13.73;63.41;100032.41;3136092;28;20059;-69
2022/10/14 04:03:56;;;;;;;12.65;2.47;;;;;;;13.73;63.05;100037.63;3135021;28;20074;-69
2022/10/14 04:05:32;;;;;;;5.50;1.52;;;;;;;13.73;63.47;100035.00;3136531;28;20595;-69
2022/10/14 04:07:04;;;;;;;9.32;2.60;;;;;;;13.73;63.30;100033.22;3135327;28;20121;-69
2022/10/14 04:08:36;;;;;;;5.95;2.17;;;;;;;13.73;63.53;100033.22;3136326;28;20067;-69
2022/10/14 04:10:09;;;;;;;10.65;2.05;;;;;;;13.74;63.32;100044.53;3135626;28;20056;-70
2022/10/14 04:11:41;;;;;;;6.50;1.73;;;;;;;13.73;63.38;100040.25;3136582;28;20050;-70
2022/10/14 04:13:12;;;;;;;14.48;2.00;;;;;;;13.72;63.12;100047.22;3135615;28;20052;-70
2022/10/14 04:14:44;;;;;;;3.55;1.83;;;;;;;13.70;63.40;100038.63;3136284;28;20064;-72
2022/10/14 04:16:16;;;;;;;9.20;2.20;;;;;;;13.67;63.17;100032.72;3135752;28;20323;-70
2022/10/14 04:17:47;;;;;;;6.80;2.00;;;;;;;13.61;63.10;100037.34;3135719;28;20305;-69
2022/10/14 04:19:19;;;;;;;9.85;2.25;;;;;;;13.57;63.25;100034.97;3135460;28;20367;-67
2022/10/14 04:20:54;;;;;;;52.55;27.98;;;;;;;13.52;63.45;100040.47;3135787;28;20130;-66
2022/10/14 04:22:26;;;;;;;81.95;36.58;;;;;;;13.48;64.00;100036.31;3135882;28;20798;-67
2022/10/14 04:23:57;;;;;;;66.13;34.58;;;;;;;13.45;64.12;100033.03;3135600;28;20167;-67
2022/10/14 04:25:29;;;;;;;14.32;7.93;;;;;;;13.40;64.10;100033.28;3135390;28;20587;-66
2022/10/14 04:26:59;;;;;;;8.50;2.83;;;;;;;13.36;64.41;100035.19;3135765;28;20053;-69
2022/10/14 04:28:32;;;;;;;15.45;2.80;;;;;;;13.33;64.56;100030.13;3135395;28;20045;-70
2022/10/14 04:30:04;;;;;;;10.32;2.78;;;;;;;13.29;64.62;100033.00;3135842;28;20767;-67
2022/10/14 04:31:36;;;;;;;10.20;2.92;;;;;;;13.25;64.71;100037.56;3135941;28;20063;-68
2022/10/14 04:33:08;;;;;;;9.40;3.05;;;;;;;13.23;64.86;100034.13;3136376;28;20620;-70
2022/10/14 04:34:41;;;;;;;8.15;2.60;;;;;;;13.20;64.88;100034.28;3136495;28;20595;-72
2022/10/14 04:36:13;;;;;;;7.50;2.58;;;;;;;13.20;65.24;100034.28;3136427;28;20079;-70
2022/10/14 04:37:45;;;;;;;14.73;2.22;;;;;;;13.21;65.38;100033.34;3135509;28;20056;-70
2022/10/14 04:39:17;;;;;;;12.13;2.35;;;;;;;13.22;65.24;100027.19;3135091;28;20052;-69
2022/10/14 04:40:49;;;;;;;10.20;2.70;;;;;;;13.24;65.22;100027.97;3135392;28;20524;-71
2022/10/14 04:42:21;;;;;;;9.60;3.25;;;;;;;13.27;64.88;100030.44;3135411;28;20102;-72
2022/10/14 04:43:53;;;;;;;14.10;2.58;;;;;;;13.29;65.00;100039.06;3135160;28;20058;-73
2022/10/14 04:45:25;;;;;;;8.95;2.35;;;;;;;13.32;64.80;100038.91;3134452;28;20054;-67
2022/10/14 04:46:57;;;;;;;19.27;3.33;;;;;;;13.35;64.97;100038.75;3135060;28;20060;-67
2022/10/14 04:48:29;;;;;;;9.82;3.40;;;;;;;13.34;64.95;100034.44;3135204;28;20062;-67
2022/10/14 04:50:01;;;;;;;18.63;3.58;;;;;;;13.35;64.75;100037.91;3135858;28;20048;-67
2022/10/14 04:51:35;;;;;;;13.25;3.00;;;;;;;13.41;64.70;100041.03;3134445;28;20079;-68
2022/10/14 04:53:06;;;;;;;18.80;3.53;;;;;;;13.43;64.34;100031.34;3134374;28;20505;-66
2022/10/14 04:54:38;;;;;;;15.02;3.75;;;;;;;13.46;64.19;100037.31;3134700;28;20521;-66
2022/10/14 04:56:10;;;;;;;14.70;3.50;;;;;;;13.47;64.42;100037.25;3135334;28;20053;-70
2022/10/14 04:57:43;;;;;;;8.32;2.83;;;;;;;13.50;64.52;100036.25;3134626;28;20064;-68
2022/10/14 04:59:15;;;;;;;8.68;3.60;;;;;;;13.50;64.15;100033.63;3134663;28;20075;-68
2022/10/14 05:00:47;;;;;;;18.98;3.33;;;;;;;13.53;64.49;100038.69;3134764;28;20385;-68
2022/10/14 05:02:19;;;;;;;10.35;3.63;;;;;;;13.55;64.44;100036.84;3134573;28;20048;-68
2022/10/14 05:03:51;;;;;;;8.30;3.15;;;;;;;13.58;64.17;100040.13;3135138;28;20067;-68
2022/10/14 05:05:23;;;;;;;8.63;2.90;;;;;;;13.59;64.21;100033.13;3135115;28;20078;-68
2022/10/14 05:06:56;;;;;;;12.35;3.55;;;;;;;13.62;64.10;100039.03;3134188;28;20056;-68
2022/10/14 05:08:28;;;;;;;10.50;2.83;;;;;;;13.62;64.03;100033.81;3134873;28;20056;-69
2022/10/14 05:10:02;;;;;;;13.60;2.90;;;;;;;13.61;63.92;100029.50;3136219;28;20061;-68
2022/10/14 05:11:35;;;;;;;7.30;2.75;;;;;;;13.67;64.11;100035.34;3136314;28;20079;-68
2022/10/14 05:13:07;;;;;;;8.77;3.05;;;;;;;13.68;63.89;100027.41;3122973;28;20162;-68
2022/10/14 05:14:39;;;;;;;11.82;2.90;;;;;;;13.71;64.01;100035.06;3133654;28;20064;-68
2022/10/14 05:16:11;;;;;;;12.88;3.75;;;;;;;13.75;63.87;100028.75;3134893;28;20051;-67
2022/10/14 05:17:44;;;;;;;9.77;3.08;;;;;;;13.76;63.93;100029.59;3134890;28;20059;-69
2022/10/14 05:19:16;;;;;;;7.03;3.28;;;;;;;13.78;63.76;100028.59;3135155;28;20084;-69
2022/10/14 05:20:48;;;;;;;7.90;2.90;;;;;;;13.81;63.57;100031.03;3135700;28;20052;-69
2022/10/14 05:22:21;;;;;;;12.38;2.88;;;;;;;13.85;63.63;100037.78;3135658;28;20498;-69
2022/10/14 05:23:54;;;;;;;10.45;3.10;;;;;;;13.86;63.50;100038.63;3135937;28;20102;-70
2022/10/14 05:25:26;;;;;;;17.08;2.72;;;;;;;13.87;63.61;100035.06;3135661;28;20060;-71
2022/10/14 05:26:58;;;;;;;20.35;2.58;;;;;;;13.91;63.58;100030.53;3135937;28;20175;-70
2022/10/14 05:28:30;;;;;;;20.80;2.95;;;;;;;13.93;63.87;100029.53;3133035;28;20057;-70
2022/10/14 05:30:02;;;;;;;13.70;3.22;;;;;;;13.97;63.76;100035.44;3134570;28;20693;-70
2022/10/14 05:31:34;;;;;;;17.92;2.95;;;;;;;13.98;63.35;100026.63;3134675;28;20060;-70
2022/10/14 05:33:06;;;;;;;62.65;33.42;;;;;;;14.04;63.16;100042.84;3138377;28;20037;-69
2022/10/14 05:34:38;;;;;;;72.15;36.78;;;;;;;14.09;63.29;100047.84;3135175;28;20560;-68
2022/10/14 05:36:11;;;;;;;34.17;14.57;;;;;;;14.11;62.97;100046.00;3135190;28;20127;-70
2022/10/14 05:37:44;;;;;;;21.05;5.68;;;;;;;14.13;62.60;100041.50;3135430;28;20386;-71
2022/10/14 05:39:15;;;;;;;23.33;3.00;;;;;;;14.14;62.90;100043.19;3135671;28;20083;-69
2022/10/14 05:40:52;;;;;;;11.45;2.95;;;;;;;14.11;62.76;100038.97;3134495;28;20048;-69
2022/10/14 05:42:24;;;;;;;20.83;3.20;;;;;;;14.09;62.79;100039.97;3134874;28;20055;-70
2022/10/14 05:43:56;;;;;;;16.63;3.50;;;;;;;14.03;62.47;100035.09;3135335;28;20614;-70
2022/10/14 05:45:28;;;;;;;17.40;3.80;;;;;;;14.01;62.61;100037.78;3136123;28;20056;-70
2022/10/14 05:47:00;;;;;;;12.07;3.25;;;;;;;13.99;62.83;100038.78;3135668;28;20060;-70
2022/10/14 05:48:32;;;;;;;10.57;2.20;;;;;;;13.93;63.04;100033.91;3134271;28;20044;-70
2022/10/14 05:50:04;;;;;;;14.15;3.22;;;;;;;13.93;63.01;100036.50;3134803;28;20048;-72
2022/10/14 05:51:36;;;;;;;10.60;2.50;;;;;;;13.92;63.22;100033.06;3135131;28;20492;-72
2022/10/14 05:53:10;;;;;;;18.58;2.70;;;;;;;13.93;63.15;100036.50;3135988;28;20044;-71
2022/10/14 05:54:43;;;;;;;15.73;3.13;;;;;;;13.93;63.45;100034.75;3135350;28;20825;-68
2022/10/14 05:56:15;;;;;;;8.95;2.80;;;;;;;13.96;63.27;100033.72;3135458;28;20079;-68
2022/10/14 05:57:48;;;;;;;11.60;2.38;;;;;;;13.92;63.71;100042.69;3135453;28;20082;-67
2022/10/14 05:59:21;;;;;;;11.73;1.98;;;;;;;13.92;63.70;100034.84;3135517;28;20053;-68
2022/10/14 06:00:54;;;;;;;8.30;1.70;;;;;;;13.95;63.93;100040.75;3138109;28;20060;-71
2022/10/14 06:02:26;;;;;;;7.53;2.00;;;;;;;13.99;63.85;100042.28;3136104;28;20053;-70
2022/10/14 06:03:59;;;;;;;5.53;2.10;;;;;;;14.02;63.43;100043.84;3135403;28;20568;-70
2022/10/14 06:05:35;;;;;;;5.70;1.73;;;;;;;14.06;63.65;100045.38;3134995;28;21519;-67
2022/10/14 06:07:09;;;;;;;9.43;2.03;;;;;;;14.09;63.37;100042.59;3135123;28;20045;-66
2022/10/14 06:08:43;;;;;;;6.57;2.33;;;;;;;14.18;63.56;100052.56;3135205;28;20341;-66
2022/10/14 06:10:17;;;;;;;8.65;4.00;;;;;;;14.25;63.57;100048.66;3134602;28;20178;-67
2022/10/14 06:11:49;;;;;;;6.22;2.30;;;;;;;14.30;63.36;100043.16;3135084;28;20509;-68
2022/10/14 06:13:23;;;;;;;6.38;2.00;;;;;;;14.38;63.52;100040.97;3135554;28;20585;-67
2022/10/14 06:14:55;;;;;;;7.90;2.10;;;;;;;14.47;63.27;100044.84;3135150;28;20090;-66
2022/10/14 06:16:28;;;;;;;5.93;2.10;;;;;;;14.56;62.94;100049.56;3135469;28;20652;-66
2022/10/14 06:18:01;;;;;;;5.20;1.92;;;;;;;14.61;62.57;100042.31;3134022;28;20494;-65
2022/10/14 06:19:34;;;;;;;13.18;2.20;;;;;;;14.68;62.69;100041.00;3134765;28;20054;-64
2022/10/14 06:21:07;;;;;;;4.18;1.38;;;;;;;14.83;62.38;100044.50;3134795;28;20095;-64
2022/10/14 06:22:40;;;;;;;8.73;1.52;;;;;;;14.94;62.27;100043.88;3134518;28;20060;-64
2022/10/14 06:24:15;;;;;;;6.50;1.25;;;;;;;15.01;61.99;100040.78;3129528;28;20048;-64
2022/10/14 06:25:48;;;;;;;7.80;1.13;;;;;;;15.09;61.96;100036.88;3133252;28;20125;-64
2022/10/14 06:27:21;;;;;;;3.22;1.13;;;;;;;15.23;61.46;100048.22;3134872;28;20400;-65
2022/10/14 06:28:58;;;;;;;3.58;0.80;;;;;;;15.32;61.09;100043.31;3134881;28;20403;-65
2022/10/14 06:30:31;;;;;;;7.75;1.25;;;;;;;15.39;60.65;100050.75;3134553;28;20458;-65
2022/10/14 06:32:04;;;;;;;;;;;;;;;15.43;60.42;100048.78;3135071;28;20148;-65
2022/10/14 06:33:37;;;;;;;4.97;1.50;;;;;;;15.48;60.30;100044.94;3135890;28;20411;-65
2022/10/14 06:35:11;;;;;;;9.30;0.95;;;;;;;15.57;60.14;100054.03;3134974;28;20445;-64
2022/10/14 06:36:44;;;;;;;6.43;1.10;;;;;;;15.60;60.09;100058.25;3136089;28;20535;-64
2022/10/14 06:38:17;;;;;;;7.95;0.93;;;;;;;15.61;59.96;100060.75;3136708;28;20748;-64
2022/10/14 06:39:51;;;;;;;2.13;0.85;;;;;;;15.71;59.76;100055.00;3129552;28;20630;-64
2022/10/14 06:41:25;;;;;;;6.65;1.00;;;;;;;15.79;59.34;100052.69;3137131;28;20566;-64
2022/10/14 06:42:59;;;;;;;8.43;1.33;;;;;;;15.77;59.33;100049.34;3137258;28;20052;-66
2022/10/14 06:44:32;;;;;;;5.47;0.73;;;;;;;15.83;59.02;100048.97;3137457;28;20145;-65
2022/10/14 06:46:05;;;;;;;9.32;1.17;;;;;;;15.86;59.05;100054.03;3136706;28;20060;-65
2022/10/14 06:47:37;;;;;;;;;;;;;;;15.80;58.71;100046.53;3134618;28;20055;-65
2022/10/14 06:49:10;;;;;;;3.80;1.00;;;;;;;15.84;58.92;100050.63;3137002;28;19924;-65
2022/10/14 06:50:44;;;;;;;16.15;8.13;;;;;;;15.93;59.07;100050.91;3137245;28;20461;-65
2022/10/14 06:52:16;;;;;;;;;;;;;;;15.98;58.93;100055.03;3138106;28;20125;-65
2022/10/14 06:53:49;;;;;;;1.67;0.98;;;;;;;16.02;58.69;100059.97;3136649;28;19957;-65
2022/10/14 06:55:23;;;;;;;7.35;1.48;;;;;;;15.99;58.35;100054.09;3137256;28;20113;-66
2022/10/14 06:56:56;;;;;;;2.90;1.10;;;;;;;15.96;58.44;100054.28;3137192;28;20517;-66
2022/10/14 06:58:29;;;;;;;4.72;0.93;;;;;;;15.87;58.28;100053.91;3137094;28;20098;-66
2022/10/14 07:00:03;;;;;;;8.70;1.25;;;;;;;15.78;58.40;100058.91;3137112;28;20079;-66
2022/10/14 07:01:36;;;;;;;6.00;1.02;;;;;;;15.75;58.81;100064.34;3136932;28;20075;-67
2022/10/14 07:03:09;;;;;;;3.78;1.38;;;;;;;15.74;58.68;100071.38;3137595;28;20576;-66
2022/10/14 07:04:42;;;;;;;;;;;;;;;15.70;58.62;100069.88;3137447;28;20484;-66
2022/10/14 07:06:15;;;;;;;2.63;1.30;;;;;;;15.71;58.82;100066.34;3136136;28;19997;-66
2022/10/14 07:07:48;;;;;;;3.75;1.02;;;;;;;15.79;58.69;100055.34;3136175;28;20535;-65
2022/10/14 07:09:22;;;;;;;2.42;0.93;;;;;;;15.84;58.64;100058.53;3136809;28;20164;-66
2022/10/14 07:10:56;;;;;;;2.88;1.10;;;;;;;15.88;58.45;100057.38;3136187;28;20053;-65
2022/10/14 07:12:30;;;;;;;5.88;0.95;;;;;;;15.85;58.23;100050.56;3136095;28;20555;-65
2022/10/14 07:14:03;;;;;;;2.00;0.98;;;;;;;15.86;58.53;100056.66;3136144;28;20117;-65
2022/10/14 07:15:37;;;;;;;5.25;1.42;;;;;;;15.92;58.34;100051.84;3136114;28;20044;-65